Time;durP1;ratioP1;P1;durP2;ratioP2;P2;SDS_P1;SDS_P2;PMS_P1;PMS_P2;Temp;Humidity;BMP_temperature;BMP_pressure;BME280_temperature;BME280_humidity;BME280_pressure;Samples;Min_cycle;Max_cycle;Signal;HPM_P1;HPM_P2
2022/05/21 00:00:43;;;;;;;6.37;3.17;;;;;;;13.13;83.54;100890.59;5979348;28;20483;-66
2022/05/21 00:03:39;;;;;;;4.72;2.72;;;;;;;13.08;83.53;100884.94;5979242;28;20031;-66
2022/05/21 00:06:35;;;;;;;7.93;3.10;;;;;;;13.05;83.96;100891.38;5986508;28;20805;-66
2022/05/21 00:09:30;;;;;;;7.47;2.90;;;;;;;13.02;84.08;100893.50;5979406;28;20035;-66
2022/05/21 00:12:25;;;;;;;7.53;2.60;;;;;;;13.02;84.35;100890.84;5982595;28;20814;-67
2022/05/21 00:15:25;;;;;;;7.13;2.58;;;;;;;12.95;85.08;100909.28;5979575;28;20027;-66
2022/05/21 00:18:20;;;;;;;9.20;3.25;;;;;;;12.89;84.79;100907.25;5978932;28;20595;-66
2022/05/21 00:21:16;;;;;;;7.70;3.80;;;;;;;12.87;84.43;100903.06;5980731;28;20046;-66
2022/05/21 00:24:11;;;;;;;6.65;3.60;;;;;;;12.82;84.67;100914.19;5985755;28;20039;-66
2022/05/21 00:27:07;;;;;;;5.20;2.90;;;;;;;12.83;84.58;100918.50;5986033;28;20090;-66
2022/05/21 00:30:02;;;;;;;6.75;3.50;;;;;;;12.83;84.80;100926.50;5988948;28;20283;-67
2022/05/21 00:32:58;;;;;;;7.95;3.20;;;;;;;12.91;84.13;100931.88;5991675;28;20489;-66
2022/05/21 00:35:54;;;;;;;6.60;3.05;;;;;;;12.95;84.60;100948.38;5984899;28;20035;-66
2022/05/21 00:38:49;;;;;;;9.50;3.78;;;;;;;12.91;86.22;100937.19;5984074;28;20039;-66
2022/05/21 00:41:45;;;;;;;8.07;4.07;;;;;;;12.53;89.52;100953.50;5985489;28;20054;-66
2022/05/21 00:44:40;;;;;;;9.77;5.00;;;;;;;12.17;92.36;100973.13;5995703;28;20035;-66
2022/05/21 00:47:36;;;;;;;7.77;4.63;;;;;;;11.93;93.83;100966.53;5992766;28;20282;-67
2022/05/21 00:50:31;;;;;;;7.45;3.58;;;;;;;11.82;94.83;100972.03;5983116;28;20106;-68
2022/05/21 00:53:28;;;;;;;9.00;3.95;;;;;;;11.61;94.84;100979.38;5983825;28;20086;-68
2022/05/21 00:56:24;;;;;;;5.85;2.50;;;;;;;11.49;94.31;100983.22;5982479;28;20039;-67
2022/05/21 01:02:38;;;;;;;5.85;3.00;;;;;;;11.41;93.69;101000.84;5985413;28;20043;-67
2022/05/21 01:05:34;;;;;;;5.90;3.30;;;;;;;11.39;93.78;101008.94;5982637;28;20037;-66
2022/05/21 01:08:30;;;;;;;5.68;2.83;;;;;;;11.40;93.73;101005.31;5983560;28;20047;-66
2022/05/21 01:11:26;;;;;;;7.05;3.20;;;;;;;11.45;93.72;101018.16;5982098;28;20587;-65
2022/05/21 01:14:22;;;;;;;5.50;3.00;;;;;;;11.43;93.97;101017.47;5983372;28;20043;-66
2022/05/21 01:17:19;;;;;;;5.63;3.35;;;;;;;11.43;94.07;101020.97;5977381;28;20034;-65
2022/05/21 01:20:18;;;;;;;5.85;3.33;;;;;;;11.45;93.95;101029.63;5980400;28;20098;-65
2022/05/21 01:23:15;;;;;;;5.85;3.33;;;;;;;11.46;94.04;101030.47;5984579;28;20499;-65
2022/05/21 01:26:19;;;;;;;6.95;3.22;;;;;;;11.40;93.69;101026.56;5981643;28;20471;-65
2022/05/21 01:29:26;;;;;;;7.18;3.85;;;;;;;11.50;93.33;101032.69;5981935;28;20106;-65
2022/05/21 01:32:21;;;;;;;5.90;3.50;;;;;;;11.45;93.32;101026.13;5979644;28;20372;-65
2022/05/21 01:35:18;;;;;;;8.88;3.42;;;;;;;11.45;93.32;101040.25;5981894;28;20035;-65
2022/05/21 01:38:15;;;;;;;6.40;3.15;;;;;;;11.55;93.40;101045.53;5987921;28;20490;-65
2022/05/21 01:41:11;;;;;;;8.02;3.67;;;;;;;11.44;93.28;101043.88;5980451;28;20388;-65
2022/05/21 01:47:20;;;;;;;6.20;3.38;;;;;;;11.46;93.62;101057.88;5981618;29;20039;-65
2022/05/21 01:50:16;;;;;;;7.97;4.00;;;;;;;11.34;93.82;101053.69;5986615;28;20039;-65
2022/05/21 01:53:11;;;;;;;8.50;4.47;;;;;;;11.28;94.21;101064.84;5981293;28;20035;-65
2022/05/21 01:56:08;;;;;;;8.88;4.05;;;;;;;11.27;94.33;101065.84;5981253;28;20274;-65
2022/05/21 01:59:03;;;;;;;8.27;3.70;;;;;;;11.08;94.41;101052.59;5981109;28;20042;-65
2022/05/21 02:02:01;;;;;;;6.40;3.73;;;;;;;11.06;94.56;101065.19;5980619;28;20039;-66
2022/05/21 02:04:56;;;;;;;9.55;3.70;;;;;;;10.91;93.98;101063.91;5968760;28;20064;-66
2022/05/21 02:07:51;;;;;;;6.97;2.70;;;;;;;10.87;93.15;101066.00;5985814;28;20476;-66
2022/05/21 02:10:47;;;;;;;5.63;2.83;;;;;;;10.85;91.14;101057.34;5980420;28;20059;-66
2022/05/21 02:13:43;;;;;;;5.82;2.88;;;;;;;10.87;90.46;101076.63;5981305;28;20035;-66
2022/05/21 02:16:38;;;;;;;5.10;2.70;;;;;;;10.72;90.53;101078.84;5987013;28;20050;-66
2022/05/21 02:19:33;;;;;;;6.07;2.60;;;;;;;10.82;90.49;101086.81;5983851;28;20039;-66
2022/05/21 02:22:29;;;;;;;5.50;2.60;;;;;;;10.74;89.98;101090.16;5980203;28;20698;-66
2022/05/21 02:25:25;;;;;;;6.60;2.50;;;;;;;10.65;90.65;101087.50;5980703;28;20102;-66
2022/05/21 02:28:20;;;;;;;5.37;2.37;;;;;;;10.58;90.87;101094.31;5981763;28;20051;-66
2022/05/21 02:31:15;;;;;;;5.53;2.43;;;;;;;10.59;91.33;101102.16;5980164;28;20078;-66
2022/05/21 02:34:11;;;;;;;4.25;2.58;;;;;;;10.56;91.44;101099.75;5991228;28;20035;-65
2022/05/21 02:40:20;;;;;;;5.43;2.92;;;;;;;10.47;91.72;101105.88;5988976;28;20042;-65
2022/05/21 02:43:16;;;;;;;6.30;3.07;;;;;;;10.58;91.42;101102.28;5986240;28;20414;-66
2022/05/21 02:46:11;;;;;;;7.67;3.10;;;;;;;10.68;90.77;101119.06;5983839;28;20068;-66
2022/05/21 02:49:06;;;;;;;7.93;3.03;;;;;;;10.85;91.07;101120.19;5980401;28;20391;-66
2022/05/21 02:52:02;;;;;;;9.37;3.10;;;;;;;10.87;90.69;101119.06;5988138;28;20154;-66
2022/05/21 02:54:57;;;;;;;6.53;3.60;;;;;;;10.91;89.68;101114.31;5981100;28;20975;-66
2022/05/21 02:57:53;;;;;;;7.85;3.60;;;;;;;11.00;89.70;101124.13;5979930;28;20064;-66
2022/05/21 03:00:49;;;;;;;6.93;3.88;;;;;;;11.10;90.16;101125.81;5979909;28;20039;-66
2022/05/21 03:03:44;;;;;;;8.07;4.07;;;;;;;11.09;89.33;101124.13;5980069;28;20031;-66
2022/05/21 03:06:39;;;;;;;9.85;4.57;;;;;;;11.10;89.02;101127.63;5985073;28;20026;-66
2022/05/21 03:12:51;;;;;;;11.30;4.38;;;;;;;11.16;88.41;101124.41;5980969;28;20027;-65
2022/05/21 03:15:47;;;;;;;10.07;4.60;;;;;;;11.17;87.85;101126.91;5983024;28;20082;-66
2022/05/21 03:18:42;;;;;;;7.53;4.15;;;;;;;11.10;88.41;101127.63;5980465;28;20444;-65
2022/05/21 03:21:38;;;;;;;9.43;4.30;;;;;;;11.00;88.46;101126.78;5989388;28;20043;-66
2022/05/21 03:24:33;;;;;;;10.23;4.40;;;;;;;10.96;88.76;101128.00;5981222;28;20101;-66
2022/05/21 03:27:28;;;;;;;11.23;4.60;;;;;;;10.87;89.12;101123.56;5989698;28;20047;-66
2022/05/21 03:30:27;;;;;;;8.60;4.40;;;;;;;10.72;90.07;101131.91;5978944;28;20070;-66
2022/05/21 03:33:22;;;;;;;10.13;4.45;;;;;;;10.64;90.40;101129.09;5979851;28;20035;-66
2022/05/21 03:36:18;;;;;;;8.88;4.30;;;;;;;10.69;90.78;101134.81;5980509;28;20047;-66
2022/05/21 03:39:13;;;;;;;10.47;4.63;;;;;;;10.55;90.92;101135.19;5980292;28;20411;-66
2022/05/21 03:42:09;;;;;;;9.33;4.77;;;;;;;10.47;91.58;101131.53;5978757;28;20039;-66
2022/05/21 03:45:05;;;;;;;8.23;4.55;;;;;;;10.45;91.91;101129.03;5991912;28;20050;-66
2022/05/21 03:48:00;;;;;;;11.68;5.40;;;;;;;10.47;91.84;101136.84;5989487;28;20503;-65
2022/05/21 03:50:56;;;;;;;10.43;4.60;;;;;;;10.41;92.17;101143.53;5978802;28;20031;-66
2022/05/21 03:53:51;;;;;;;9.43;4.93;;;;;;;10.49;91.79;101146.34;5984949;28;20039;-65
2022/05/21 03:56:47;;;;;;;9.07;4.53;;;;;;;10.46;91.15;101159.88;5983714;28;20034;-66
2022/05/21 03:59:43;;;;;;;10.85;4.80;;;;;;;10.48;91.38;101157.09;5978915;28;20031;-66
2022/05/21 04:02:39;;;;;;;8.43;4.60;;;;;;;10.46;90.97;101157.22;5978900;28;20122;-66
2022/05/21 04:05:34;;;;;;;6.82;4.18;;;;;;;10.55;90.22;101160.88;5984121;28;20227;-65
2022/05/21 04:08:29;;;;;;;7.93;4.23;;;;;;;10.58;89.45;101152.66;5990321;28;20043;-66
2022/05/21 04:11:24;;;;;;;8.63;4.30;;;;;;;10.71;89.42;101150.59;5984324;28;21904;-66
2022/05/21 04:14:20;;;;;;;9.37;4.80;;;;;;;10.68;89.13;101151.69;5983496;28;20103;-66
2022/05/21 04:17:16;;;;;;;9.75;4.82;;;;;;;10.76;88.83;101151.03;5990947;28;20094;-66
2022/05/21 04:20:14;;;;;;;7.63;4.30;;;;;;;11.11;89.02;101146.06;5981832;29;20114;-66
2022/05/21 04:23:09;;;;;;;9.23;4.05;;;;;;;11.34;86.46;101136.00;5986372;28;20438;-66
2022/05/21 04:26:04;;;;;;;6.73;3.93;;;;;;;11.64;84.53;101138.47;5983558;28;20035;-66
2022/05/21 04:29:00;;;;;;;7.57;3.63;;;;;;;11.79;83.77;101134.44;5985621;28;20035;-66
2022/05/21 04:31:55;;;;;;;10.83;4.17;;;;;;;11.69;83.45;101133.59;5984421;28;20046;-66
2022/05/21 04:34:50;;;;;;;7.33;3.30;;;;;;;11.88;83.23;101135.38;5983152;28;20514;-66
2022/05/21 04:37:46;;;;;;;7.63;3.43;;;;;;;12.32;81.19;101139.13;5992292;28;20086;-66
2022/05/21 04:40:42;;;;;;;10.98;4.20;;;;;;;12.28;80.21;101135.13;5984489;28;20059;-66
2022/05/21 04:43:37;;;;;;;10.77;4.07;;;;;;;12.67;80.03;101139.25;5984221;28;20110;-66
2022/05/21 04:46:33;;;;;;;6.67;3.67;;;;;;;13.03;79.47;101126.81;5984229;28;20035;-67
2022/05/21 04:49:28;;;;;;;7.40;3.47;;;;;;;13.30;76.74;101134.75;5982947;28;20114;-66
2022/05/21 04:52:23;;;;;;;8.13;3.50;;;;;;;13.19;76.21;101131.47;5982936;28;20062;-66
2022/05/21 04:55:19;;;;;;;8.93;4.00;;;;;;;12.95;76.89;101135.56;5982799;28;20039;-66
2022/05/21 04:58:14;;;;;;;8.73;3.80;;;;;;;12.70;78.37;101125.63;5992056;28;20074;-66
2022/05/21 05:01:09;;;;;;;6.90;3.70;;;;;;;12.64;78.63;101125.41;5982205;28;20039;-67
2022/05/21 05:04:06;;;;;;;7.00;4.13;;;;;;;12.57;79.37;101125.16;5984355;28;20082;-66
2022/05/21 05:07:08;;;;;;;8.43;4.75;;;;;;;12.44;79.88;101119.34;5986604;28;20279;-66
2022/05/21 05:10:04;;;;;;;9.55;4.57;;;;;;;12.35;79.70;101122.91;5982261;28;20487;-66
2022/05/21 05:13:00;;;;;;;9.25;5.15;;;;;;;12.38;80.63;101115.47;5988755;28;20066;-66
2022/05/21 05:15:55;;;;;;;11.23;5.30;;;;;;;12.38;79.69;101115.47;5985231;28;20027;-65
2022/05/21 05:18:50;;;;;;;12.33;5.87;;;;;;;12.31;79.97;101114.38;5989504;28;20042;-66
2022/05/21 05:21:46;;;;;;;13.30;6.33;;;;;;;12.38;80.69;101120.78;5987270;28;20031;-66
2022/05/21 05:24:41;;;;;;;12.23;6.33;;;;;;;12.44;80.42;101116.69;5982310;28;20027;-65
2022/05/21 05:27:37;;;;;;;14.82;6.70;;;;;;;12.46;80.33;101120.03;5990178;28;20035;-66
2022/05/21 05:30:32;;;;;;;13.93;6.90;;;;;;;12.53;79.98;101106.00;5981715;28;20031;-66
2022/05/21 05:33:30;;;;;;;15.25;7.32;;;;;;;12.42;79.68;101106.19;5989128;28;20023;-65
2022/05/21 05:36:25;;;;;;;12.48;6.90;;;;;;;12.39;80.23;101108.34;5988277;28;20121;-66
2022/05/21 05:39:21;;;;;;;17.30;7.37;;;;;;;12.46;79.98;101106.75;5981918;28;20058;-66
2022/05/21 05:42:17;;;;;;;15.68;7.43;;;;;;;12.55;80.16;101116.50;5988555;28;20081;-66
2022/05/21 05:45:13;;;;;;;14.20;7.93;;;;;;;12.71;80.82;101114.03;5986048;28;20372;-66
2022/05/21 05:48:09;;;;;;;13.63;7.68;;;;;;;12.74;79.72;101119.03;5984105;28;20720;-65
2022/05/21 05:51:04;;;;;;;15.18;7.55;;;;;;;12.73;79.35;101114.69;5981060;28;20055;-66
2022/05/21 05:53:59;;;;;;;12.63;7.60;;;;;;;12.69;79.42;101129.28;5980977;28;20550;-65
2022/05/21 05:56:55;;;;;;;13.80;7.80;;;;;;;12.70;80.26;101125.63;5981392;28;20118;-65
2022/05/21 05:59:50;;;;;;;15.00;8.40;;;;;;;12.64;80.13;101128.88;5981579;28;20039;-66
2022/05/21 06:02:58;;;;;;;17.73;9.35;;;;;;;12.56;79.86;101126.13;5985440;28;20035;-66
2022/05/21 06:05:53;;;;;;;22.67;9.48;;;;;;;12.61;80.62;101147.81;5981363;28;20430;-66
2022/05/21 06:08:49;;;;;;;23.65;10.32;;;;;;;12.60;80.32;101146.16;5989618;28;20035;-66
2022/05/21 06:11:45;;;;;;;24.00;10.63;;;;;;;12.68;79.53;101140.94;5984031;28;20035;-65
2022/05/21 06:14:41;;;;;;;19.17;10.33;;;;;;;12.61;80.55;101152.31;5982206;28;20106;-65
2022/05/21 06:17:37;;;;;;;22.02;10.93;;;;;;;12.53;80.79;101145.06;5980195;28;20035;-66
2022/05/21 06:20:33;;;;;;;19.63;10.10;;;;;;;12.54;80.70;101152.91;5979877;28;20400;-66
2022/05/21 06:23:30;;;;;;;20.38;10.82;;;;;;;12.49;81.49;101141.88;5980145;28;20077;-65
2022/05/21 06:26:25;;;;;;;20.48;9.98;;;;;;;12.59;81.50;101154.25;5979177;28;20105;-66
2022/05/21 06:29:20;;;;;;;26.27;11.60;;;;;;;12.54;81.67;101152.91;5980208;28;20043;-66
2022/05/21 06:32:16;;;;;;;20.80;9.97;;;;;;;12.56;81.97;101150.06;5979128;28;20122;-66
2022/05/21 06:35:12;;;;;;;18.87;10.23;;;;;;;12.54;81.82;101146.75;5981527;28;20162;-66
2022/05/21 06:38:07;;;;;;;22.08;10.13;;;;;;;12.64;81.90;101152.03;5983022;28;20027;-65
2022/05/21 06:41:04;;;;;;;26.67;11.23;;;;;;;12.61;82.34;101158.44;5986483;28;20034;-66
2022/05/21 06:43:59;;;;;;;23.15;11.95;;;;;;;12.61;81.58;101147.81;5978238;28;20364;-65
2022/05/21 06:46:55;;;;;;;26.33;11.90;;;;;;;12.64;81.27;101155.50;5979809;28;20043;-65
2022/05/21 06:49:55;;;;;;;23.42;12.25;;;;;;;12.58;81.56;101152.59;5984814;28;20090;-65
2022/05/21 06:52:50;;;;;;;23.05;11.70;;;;;;;12.62;81.79;101153.97;5979486;28;20034;-66
2022/05/21 06:55:46;;;;;;;21.80;10.80;;;;;;;12.64;82.75;101168.81;5979253;28;20043;-66
2022/05/21 06:58:41;;;;;;;22.67;11.57;;;;;;;12.66;82.04;101156.22;5979925;28;20034;-65
2022/05/21 07:01:36;;;;;;;24.13;12.15;;;;;;;12.75;81.62;101152.63;5978209;28;20475;-66
2022/05/21 07:07:46;;;;;;;30.65;12.25;;;;;;;13.00;80.67;101154.59;5979646;28;20040;-66
2022/05/21 07:10:41;;;;;;;22.70;11.87;;;;;;;12.98;80.77;101156.56;5980946;28;20043;-66
2022/05/21 07:13:36;;;;;;;20.53;11.77;;;;;;;12.85;80.30;101156.09;5979523;28;20274;-66
2022/05/21 07:16:32;;;;;;;20.23;11.47;;;;;;;12.96;81.20;101163.84;5980999;28;20283;-65
2022/05/21 07:19:27;;;;;;;22.55;11.77;;;;;;;13.03;80.76;101162.28;5978340;28;20038;-65
2022/05/21 07:22:23;;;;;;;23.53;13.00;;;;;;;12.93;81.60;101174.81;5978854;28;20039;-65
2022/05/21 07:25:21;;;;;;;22.45;11.13;;;;;;;13.06;81.11;101172.63;5979557;28;20138;-65
2022/05/21 07:28:16;;;;;;;27.70;11.70;;;;;;;13.07;80.58;101178.81;5982318;28;20118;-65
2022/05/21 07:31:12;;;;;;;19.15;10.52;;;;;;;13.11;80.96;101183.69;5976027;28;20033;-66
2022/05/21 07:34:09;;;;;;;20.97;11.67;;;;;;;13.02;80.95;101179.22;5978604;28;20039;-66
2022/05/21 07:37:04;;;;;;;21.73;11.07;;;;;;;13.10;81.16;101186.47;5978599;28;20039;-66
2022/05/21 07:40:01;;;;;;;18.03;9.97;;;;;;;13.16;80.74;101185.03;5987566;28;20074;-66
2022/05/21 07:42:56;;;;;;;23.25;10.85;;;;;;;13.37;80.59;101182.94;5983388;28;20062;-65
2022/05/21 07:45:51;;;;;;;18.10;9.27;;;;;;;13.56;79.44;101180.13;5987222;28;20129;-66
2022/05/21 07:48:46;;;;;;;19.17;9.77;;;;;;;13.66;79.69;101183.53;5982643;28;20356;-66
2022/05/21 07:51:42;;;;;;;16.90;9.07;;;;;;;13.53;79.60;101177.75;5982176;28;20475;-66
2022/05/21 07:54:37;;;;;;;17.55;10.00;;;;;;;13.49;79.23;101187.03;5978958;28;20031;-66
2022/05/21 07:57:33;;;;;;;18.17;9.33;;;;;;;13.53;80.34;101180.44;5978933;28;20043;-65
2022/05/21 08:00:28;;;;;;;23.73;9.88;;;;;;;13.63;79.52;101181.16;5981267;28;20035;-66
2022/05/21 08:03:24;;;;;;;18.30;9.17;;;;;;;13.71;79.23;101181.22;5984470;28;20043;-66
2022/05/21 08:06:19;;;;;;;15.25;9.38;;;;;;;13.66;79.41;101176.38;5979402;28;20023;-66
2022/05/21 08:09:14;;;;;;;19.47;8.93;;;;;;;13.59;79.58;101174.47;5978777;28;20406;-66
2022/05/21 08:12:14;;;;;;;22.47;9.93;;;;;;;13.78;79.25;101182.28;5973732;28;20027;-66
2022/05/21 08:15:10;;;;;;;16.58;8.65;;;;;;;14.21;78.74;101166.22;5979066;28;20300;-67
2022/05/21 08:18:05;;;;;;;16.15;8.60;;;;;;;14.47;77.12;101168.06;5974060;28;20531;-65
2022/05/21 08:21:01;;;;;;;19.10;9.20;;;;;;;14.96;76.42;101167.25;5978313;28;20427;-65
2022/05/21 08:27:10;;;;;;;14.75;8.23;;;;;;;15.71;71.37;101152.81;5971344;29;20700;-66
2022/05/21 08:30:06;;;;;;;15.87;7.53;;;;;;;16.04;70.11;101153.59;5977528;28;20031;-66
2022/05/21 08:33:06;;;;;;;13.05;7.68;;;;;;;16.19;69.92;101149.22;5975137;28;20082;-66
2022/05/21 08:36:01;;;;;;;16.25;7.60;;;;;;;16.94;69.42;101144.22;5993473;28;20031;-66
2022/05/21 08:38:56;;;;;;;11.90;6.47;;;;;;;16.80;67.93;101140.44;5988588;28;20041;-65
2022/05/21 08:42:05;;;;;;;15.23;6.70;;;;;;;16.67;67.69;101149.06;5983313;28;20023;-66
2022/05/21 08:45:11;;;;;;;11.50;6.80;;;;;;;16.82;67.17;101156.38;5977164;28;20042;-66
2022/05/21 08:48:06;;;;;;;14.85;7.15;;;;;;;16.56;68.05;101154.81;5975962;28;20069;-66
2022/05/21 08:51:08;;;;;;;13.38;6.20;;;;;;;15.75;69.92;101153.31;5981445;28;20064;-66
2022/05/21 08:54:04;;;;;;;16.02;6.65;;;;;;;15.27;71.56;101162.94;5983156;28;20039;-65
2022/05/21 08:57:01;;;;;;;11.20;6.28;;;;;;;15.17;71.64;101156.09;5982710;28;20058;-65
2022/05/21 09:00:09;;;;;;;17.35;7.60;;;;;;;15.21;72.09;101163.63;5997192;28;20065;-65
2022/05/21 09:03:09;;;;;;;11.35;6.00;;;;;;;15.20;72.59;101161.94;5983195;28;20118;-66
2022/05/21 09:06:08;;;;;;;13.73;5.80;;;;;;;15.24;72.51;101157.13;5978381;28;20071;-65
2022/05/21 09:09:41;;;;;;;11.90;5.65;;;;;;;15.23;72.48;101155.44;5988811;28;20039;-66
2022/05/21 09:12:45;;;;;;;12.65;5.43;;;;;;;15.11;72.55;101162.94;5980480;28;20031;-66
2022/05/21 09:18:58;;;;;;;10.00;5.07;;;;;;;14.99;72.32;101156.25;5982155;28;20515;-66
2022/05/21 09:22:01;;;;;;;12.07;4.90;;;;;;;14.98;72.96;101159.91;5981646;28;20028;-65
2022/05/21 09:24:58;;;;;;;9.65;5.07;;;;;;;14.92;73.77;101173.91;5984702;28;20043;-65
2022/05/21 09:28:06;;;;;;;9.40;4.88;;;;;;;14.98;73.62;101167.91;5981974;28;20065;-65
2022/05/21 09:31:01;;;;;;;10.80;5.28;;;;;;;15.10;72.36;101166.63;5980133;28;20031;-66
2022/05/21 09:34:11;;;;;;;10.30;4.93;;;;;;;15.00;72.22;101168.56;5979845;28;20065;-65
2022/05/21 09:37:15;;;;;;;9.73;4.03;;;;;;;15.35;72.32;101170.16;5981863;28;20711;-66
2022/05/21 09:40:31;;;;;;;10.93;3.67;;;;;;;15.39;70.49;101156.28;5981093;29;20390;-65
2022/05/21 09:46:42;;;;;;;9.65;2.78;;;;;;;15.59;68.46;101161.34;5980862;28;20039;-65
2022/05/21 09:49:39;;;;;;;9.18;2.90;;;;;;;15.54;68.91;101169.03;5982457;28;20070;-66
2022/05/21 09:52:35;;;;;;;7.13;3.28;;;;;;;15.30;68.94;101175.97;5981679;28;20110;-66
2022/05/21 09:55:30;;;;;;;6.78;3.13;;;;;;;15.18;68.95;101169.31;5980984;28;20102;-66
2022/05/21 09:58:26;;;;;;;6.97;2.90;;;;;;;15.32;67.38;101171.31;5979478;29;20043;-65
2022/05/21 10:01:37;;;;;;;11.30;2.83;;;;;;;16.69;67.21;101172.16;5979545;28;20027;-66
2022/05/21 10:04:39;;;;;;;8.32;2.63;;;;;;;17.31;62.03;101167.63;5976488;29;20117;-65
2022/05/21 10:11:08;;;;;;;6.65;2.28;;;;;;;17.01;61.19;101177.34;5978035;29;20039;-65
2022/05/21 10:14:07;;;;;;;9.90;2.50;;;;;;;16.97;61.73;101173.34;5978955;29;20059;-66
2022/05/21 10:17:08;;;;;;;7.55;2.28;;;;;;;17.17;59.97;101182.63;5978202;28;20034;-65
2022/05/21 10:20:20;;;;;;;7.18;2.25;;;;;;;17.18;60.46;101177.06;5970746;28;20032;-66
2022/05/21 10:23:30;;;;;;;7.25;2.22;;;;;;;17.25;61.84;101180.72;5980307;28;20042;-66
2022/05/21 10:27:02;;;;;;;5.20;2.72;;;;;;;17.16;62.88;101187.13;5972687;29;20032;-66
2022/05/21 10:30:21;;;;;;;6.70;2.90;;;;;;;17.12;63.21;101201.09;5960839;28;20050;-66
2022/05/21 10:33:29;;;;;;;7.22;2.60;;;;;;;16.17;65.58;101210.09;5963904;29;20040;-66
2022/05/21 10:36:44;;;;;;;7.47;2.90;;;;;;;15.68;68.45;101219.16;5983625;28;20506;-65
2022/05/21 10:40:07;;;;;;;6.30;2.58;;;;;;;15.66;68.20;101205.09;5980700;28;20034;-65
2022/05/21 10:43:25;;;;;;;6.65;2.28;;;;;;;15.55;68.51;101200.94;5980741;28;20114;-65
2022/05/21 10:46:51;;;;;;;10.27;2.70;;;;;;;15.56;67.62;101199.09;5983560;28;20047;-66
2022/05/21 10:50:11;;;;;;;10.88;2.95;;;;;;;15.78;68.22;101190.41;5978236;28;20031;-65
2022/05/21 10:53:24;;;;;;;11.98;3.28;;;;;;;16.19;67.93;101197.41;5980530;28;20031;-65
2022/05/21 10:56:31;;;;;;;8.88;2.90;;;;;;;16.23;66.90;101192.50;5980280;28;20031;-65
2022/05/21 10:59:33;;;;;;;6.53;2.47;;;;;;;16.65;67.15;101188.59;5982445;28;20046;-66
2022/05/21 11:02:56;;;;;;;9.77;2.80;;;;;;;16.77;66.41;101206.97;5997861;28;20042;-65
2022/05/21 11:06:10;;;;;;;7.28;2.60;;;;;;;16.59;65.91;101197.31;5980228;28;20047;-65
2022/05/21 11:09:35;;;;;;;8.73;2.72;;;;;;;16.40;67.41;101195.00;5980606;28;20042;-65
2022/05/21 11:12:35;;;;;;;7.68;3.03;;;;;;;15.52;71.92;101208.47;5994385;28;20039;-66
2022/05/21 11:15:38;;;;;;;5.70;2.42;;;;;;;14.75;73.88;101205.06;5980427;28;20046;-66
2022/05/21 11:18:39;;;;;;;6.85;2.30;;;;;;;14.61;75.09;101212.84;5989689;28;20076;-65
2022/05/21 11:21:37;;;;;;;6.30;2.30;;;;;;;14.83;74.84;101204.25;5981695;28;20054;-66
2022/05/21 11:24:50;;;;;;;8.02;3.03;;;;;;;15.40;73.21;101214.09;5980001;28;20117;-66
2022/05/21 11:27:52;;;;;;;5.38;2.40;;;;;;;16.74;70.08;101200.06;5977181;28;20101;-66
2022/05/21 11:30:47;;;;;;;8.18;2.05;;;;;;;17.00;64.78;101187.25;5982410;28;20027;-66
2022/05/21 11:40:49;;;;;;;4.82;1.92;;;;;;;16.55;62.24;101206.69;5978492;28;20043;-67
2022/05/21 11:43:56;;;;;;;7.93;1.60;;;;;;;16.38;62.20;101201.53;5980249;28;20539;-66
2022/05/21 11:46:51;;;;;;;;;;;;;;;16.02;66.82;101217.16;5980921;28;20050;-65
2022/05/21 11:50:07;;;;;;;9.85;2.30;;;;;;;15.18;72.88;101238.78;5980215;28;19914;-64
2022/05/21 11:53:08;;;;;;;7.70;2.88;;;;;;;14.27;80.40;101242.97;5984062;28;20443;-64
2022/05/21 11:56:08;;;;;;;9.93;3.55;;;;;;;13.65;85.21;101257.31;5980314;28;20031;-66
2022/05/21 11:59:06;;;;;;;6.13;3.10;;;;;;;13.23;88.17;101250.06;5989290;28;20032;-66
2022/05/21 12:02:12;;;;;;;9.40;3.75;;;;;;;12.98;90.91;101247.09;5980105;28;20395;-67
2022/05/21 12:05:10;;;;;;;10.13;3.60;;;;;;;12.87;92.04;101260.59;5989176;28;20443;-67
2022/05/21 12:08:11;;;;;;;10.65;4.57;;;;;;;12.85;93.80;101246.59;5984384;28;20035;-67
2022/05/21 12:11:30;;;;;;;12.45;4.28;;;;;;;13.03;94.84;101259.94;5978115;28;20043;-66
2022/05/21 12:14:27;;;;;;;8.25;3.85;;;;;;;13.07;95.29;101258.69;5974859;29;20035;-66
2022/05/21 12:17:51;;;;;;;10.38;4.28;;;;;;;13.15;95.58;101273.94;5973949;29;20035;-68
2022/05/21 12:20:48;;;;;;;15.40;4.40;;;;;;;12.95;95.35;101268.69;5974145;29;20054;-69
2022/05/21 12:23:46;;;;;;;12.65;4.75;;;;;;;12.93;95.46;101260.00;5980355;28;20031;-65
2022/05/21 12:26:44;;;;;;;5.95;3.33;;;;;;;12.96;95.05;101254.34;5986898;28;20133;-65
2022/05/21 12:29:45;;;;;;;7.80;3.90;;;;;;;13.25;95.00;101248.06;5983272;28;20042;-66
2022/05/21 12:32:41;;;;;;;9.82;4.13;;;;;;;13.62;94.97;101238.97;5981004;28;20035;-66
2022/05/21 12:35:47;;;;;;;14.23;4.47;;;;;;;13.68;95.10;101233.03;5980668;28;20384;-67
2022/05/21 12:38:45;;;;;;;9.15;4.55;;;;;;;14.45;95.20;101234.94;5982907;28;20475;-66
2022/05/21 12:41:44;;;;;;;9.63;4.00;;;;;;;14.86;94.15;101230.66;5981029;28;20060;-65
2022/05/21 12:44:45;;;;;;;14.20;4.50;;;;;;;15.39;92.52;101233.78;5982778;28;20027;-65
2022/05/21 12:47:41;;;;;;;;;;;;;;;15.72;90.87;101236.53;5983603;28;20078;-65
2022/05/21 12:50:45;;;;;;;10.32;5.25;;;;;;;16.15;88.47;101233.50;5982639;28;20413;-66
2022/05/21 12:53:47;;;;;;;10.07;3.67;;;;;;;16.25;83.98;101214.63;5986335;28;20459;-65
2022/05/21 12:56:42;;;;;;;9.13;3.38;;;;;;;16.55;82.55;101220.06;5982778;28;20032;-66
2022/05/21 12:59:39;;;;;;;10.07;3.27;;;;;;;17.05;82.38;101221.53;5982612;28;20043;-65
2022/05/21 13:02:40;;;;;;;8.70;3.67;;;;;;;17.55;80.96;101219.25;5980496;28;20076;-66
2022/05/21 13:05:38;;;;;;;10.13;3.45;;;;;;;17.87;77.16;101222.69;5980358;28;20035;-66
2022/05/21 13:08:36;;;;;;;8.95;3.70;;;;;;;17.83;75.42;101222.19;5983448;28;20062;-66
2022/05/21 13:11:40;;;;;;;10.95;3.70;;;;;;;17.73;73.20;101218.94;5982738;28;20042;-66
2022/05/21 13:14:37;;;;;;;5.70;3.53;;;;;;;18.03;74.06;101211.81;5981354;29;20098;-66
2022/05/21 13:17:51;;;;;;;7.93;3.20;;;;;;;18.17;74.73;101219.06;5989944;28;20081;-65
2022/05/21 13:20:53;;;;;;;5.70;3.63;;;;;;;18.56;72.37;101225.06;5987476;28;20043;-65
2022/05/21 13:23:54;;;;;;;9.93;3.42;;;;;;;18.26;72.09;101223.34;5977978;28;20050;-66
2022/05/21 13:27:08;;;;;;;7.72;2.50;;;;;;;18.29;69.45;101217.59;5995305;28;20041;-65
2022/05/21 13:30:13;;;;;;;7.28;2.33;;;;;;;18.49;67.64;101213.38;5981454;28;20035;-66
2022/05/21 13:33:12;;;;;;;7.53;2.60;;;;;;;18.58;68.82;101209.59;5989881;28;20045;-65
2022/05/21 13:36:12;;;;;;;6.32;1.92;;;;;;;18.37;67.61;101210.28;5983404;28;20108;-66
2022/05/21 13:39:14;;;;;;;6.07;2.30;;;;;;;17.66;67.58;101213.47;5982375;28;20504;-66
2022/05/21 13:42:13;;;;;;;7.28;2.30;;;;;;;17.14;69.98;101215.13;5992656;28;20065;-65
2022/05/21 13:45:12;;;;;;;7.18;2.10;;;;;;;16.75;71.65;101215.16;5980236;28;20038;-65
2022/05/21 13:48:13;;;;;;;8.90;1.92;;;;;;;16.51;71.35;101232.13;6004365;28;20036;-65
2022/05/21 13:51:11;;;;;;;7.35;2.20;;;;;;;16.20;72.65;101223.13;5979509;28;20363;-65
2022/05/21 13:54:10;;;;;;;7.40;2.40;;;;;;;16.19;71.72;101231.34;5980065;29;20093;-66
2022/05/21 13:57:14;;;;;;;7.88;2.22;;;;;;;16.22;72.47;101231.84;5981378;28;20143;-65
2022/05/21 14:00:22;;;;;;;7.95;2.53;;;;;;;16.40;71.44;101245.00;5985753;28;20042;-66
2022/05/21 14:03:27;;;;;;;6.65;2.40;;;;;;;16.55;70.37;101246.03;5984128;28;20046;-65
2022/05/21 14:06:23;;;;;;;9.50;2.55;;;;;;;16.66;69.56;101233.09;5981168;28;20467;-65
2022/05/21 14:09:21;;;;;;;7.80;2.30;;;;;;;16.58;71.60;101243.81;5996845;28;20046;-65
2022/05/21 14:12:38;;;;;;;9.77;2.72;;;;;;;16.11;72.39;101252.75;5980360;28;20506;-65
2022/05/21 14:15:37;;;;;;;7.25;2.40;;;;;;;15.72;74.12;101244.56;5988704;28;20030;-65
2022/05/21 14:18:37;;;;;;;9.38;2.65;;;;;;;15.67;72.67;101249.56;5983535;28;20046;-65
2022/05/21 14:21:33;;;;;;;7.57;2.50;;;;;;;15.78;71.98;101247.41;5981345;28;20550;-65
2022/05/21 14:24:34;;;;;;;4.15;2.03;;;;;;;16.08;72.16;101248.59;5986129;28;20491;-65